KBIL/BIL METAR and TAF weather

Enter ICAO airport designator
Station Type Date Time Source
KBIL METAR 2019/10/21 21:53 UTC NOAA

KBIL 212153Z 33013G21KT 10SM SCT075 BKN090 09/M04 A3004 RMK AO2 PK WND 31027/2112 SLP184 SHRASN DSNT SE SW-W T00941044


Station Type Date Time Source
KBIL Decoded METAR 2019/10/21 21:53 UTC NOAA

LOGAN INTERNATIONAL AIRPORT, MT, United States (KBIL) 45-49N 108-33W 1091M
Oct 21, 2019 - 05:53 PM EDT / 2019.10.21 2153 UTC
Wind: from the NNW (330 degrees) at 15 MPH (13 KT) gusting to 24 MPH (21 KT):0
Visibility: 10 mile(s):0
Sky conditions: mostly cloudy
Temperature: 48.9 F (9.4 C)
Dew Point: 24.1 F (-4.4 C)
Relative Humidity: 37%
Pressure (altimeter): 30.04 in. Hg (1017 hPa)
ob: KBIL 212153Z 33013G21KT 10SM SCT075 BKN090 09/M04 A3004 RMK AO2 PK WND 31027/2112 SLP184 SHRASN DSNT SE SW-W T00941044
cycle: 22

Station Type Date Time Source
KBIL TAF 2019/10/21 18:30 UTC NOAA

TAF KBIL 211729Z 2118/2218 23008KT P6SM BKN100
FM211900 31012G20KT P6SM VCTS BKN060CB
FM220100 25010KT P6SM SCT050 BKN100
FM221700 26014G22KT P6SM VCSH BKN100

Example: see airport list